HOURLY OBS INDEX

088

Central - north

EILDON FIRE TOWER

Site: 088164
Alt: 637.0m
57km NNE of HEALESVILLE


  Time     Wind        Temp  DP   Baro     Rain since   Rain past  Vis(m), Cloud(base in m), Weather
  local        km/h                         9am  last   hr   10m    
Tue 04:00    C  0/  2  10.3  6.5  ------    0.0   0.0   0.0   0.0   ----- 
Tue 04:30  SSE  4/  7  10.1  6.4  ------    0.0   0.0   0.0   0.0   ----- 
Tue 05:00    S  2/  2   9.3  6.4  ------    0.0   0.0   0.0   0.0   ----- 
Tue 05:30    C  0/  6   9.4  6.8  ------    0.0   0.0   0.0   0.0   ----- 
Tue 06:00   SE  4/  6   9.3  6.7  ------    0.0   0.0   0.0   0.0   ----- 
Tue 06:30   SE  4/  4   9.3  6.4  ------    0.0   0.0   0.0   0.0   ----- 
Tue 07:00  ESE  6/ 11  10.3  6.6  ------    0.0   0.0   0.0   0.0   ----- 
Tue 07:30   SE  9/ 19  11.4  7.3  ------    0.0   0.0   0.0   0.0   ----- 
Tue 08:00   SE  9/ 15  12.3  7.0  ------    0.0   0.0   0.0   0.0   ----- 
Tue 08:30    E  6/  7  13.6  7.6  ------    0.0   0.0   0.0   0.0   ----- 
Tue 09:00  NNE  4/  7  13.3  7.1  ------    0.0   0.0   0.0   0.0   ----- 
Tue 09:30  WSW  4/  7  14.1  7.6  ------    0.0   0.0   0.0   0.0   ----- 

MANGALORE AIRPORT

Site: 088109
Alt: 140.8m
16km NNE of SEYMOUR


  Time     Wind        Temp  DP   Baro     Rain since   Rain past  Vis(m), Cloud(base in m), Weather
  local        km/h                         9am  last   hr   10m    
Tue 04:00  SSW  9/ 13  11.9  9.6  1020.5    0.0   0.0   0.0   0.0   10000 
Tue 04:30    S 17/ 22  12.1  9.5  1020.6    0.0   0.0   0.0   0.0   10000 
Tue 05:00    S 11/ 17  12.0  9.2  1020.8    0.0   0.0   0.0   0.0   10000 
Tue 05:30    S 13/ 19  12.4  9.2  1020.9    0.0   0.0   0.0   0.0   10000 
Tue 06:00    S 13/ 20  12.8  9.4  1021.2    0.0   0.0   0.0   0.0   10000 
Tue 06:30  SSW  9/ 13  12.4  9.1  1021.4    0.0   0.0   0.0   0.0   10000 
Tue 07:00    S 11/ 20  12.9  9.5  1021.5    0.0   0.0   0.0   0.0   10000 
Tue 07:30  SSW 11/ 17  13.7  9.6  1021.9    0.0   0.0   0.0   0.0   10000 
Tue 08:00    S 17/ 20  14.9  9.9  1022.1    0.0   0.0   0.0   0.0   10000 
Tue 08:30    S 24/ 35  16.0  9.4  1022.4    0.0   0.0   0.0   0.0   10000 
Tue 09:00    S 30/ 41  16.6  8.8  1022.7    0.0   0.0   0.0   0.0   10000 
Tue 09:30    S 28/ 41  17.6  9.0  1022.8    0.0   0.0   0.0   0.0   10000 

REDESDALE

Site: 088051
Alt: 290.0m
36km SE of BENDIGO


  Time     Wind        Temp  DP   Baro     Rain since   Rain past  Vis(m), Cloud(base in m), Weather
  local        km/h                         9am  last   hr   10m    
Tue 04:00   SW  6/  9   9.6  8.2  ------    0.0   0.0   0.0   0.0   ----- 
Tue 04:30  SSW  7/ 11  10.5  8.4  ------    0.0   0.0   0.0   0.0   ----- 
Tue 05:00  SSW  6/  9  10.4  8.2  ------    0.0   0.0   0.0   0.0   ----- 
Tue 05:30  SSW  9/ 13  10.0  8.1  ------    0.0   0.0   0.0   0.0   ----- 
Tue 06:00  SSW  9/ 13  10.3  8.1  ------    0.0   0.0   0.0   0.0   ----- 
Tue 06:30  SSW  9/ 15  10.5  8.1  ------    0.0   0.0   0.0   0.0   ----- 
Tue 07:00  SSW 11/ 17  10.7  8.1  ------    0.0   0.0   0.0   0.0   ----- 
Tue 07:30  SSW 13/ 20  12.2  8.7  ------    0.0   0.0   0.0   0.0   ----- 
Tue 08:00  SSW 13/ 20  13.8  9.3  ------    0.0   0.0   0.0   0.0   ----- 
Tue 08:30    S 20/ 32  15.3  9.2  ------    0.0   0.0   0.0   0.0   ----- 
Tue 09:00    S 17/ 24  16.6  8.8  ------    0.0   0.0   0.0   0.0   ----- 
Tue 09:30    S 15/ 20  18.3  8.8  ------    0.0   0.0   0.0   0.0   ----- 

WALLAN (KILMORE GAP)

Site: 088162
Alt: 527.8m
43km SSW of SEYMOUR


  Time     Wind        Temp  DP   Baro     Rain since   Rain past  Vis(m), Cloud(base in m), Weather
  local        km/h                         9am  last   hr   10m    
Tue 04:00  SSW 20/ 32  10.4 10.2  1021.6    0.0   0.0   0.0   0.0   -----|SC  30 OC 450 
Tue 04:23    S 22/ 30  10.7 10.5  1021.6    0.0   0.0  ----   0.0   -----|BR  90 OC 450 
Tue 04:30  SSW 22/ 35  10.7 10.5  1021.6    0.0   0.0   0.0   0.0   -----|BR  60 OC 450 
Tue 05:00    S 20/ 30  10.7 10.5  1022.0    0.0   0.0   0.0   0.0   -----|SC  60 OC 390 
Tue 05:01    S 20/ 30  10.7 10.5  1022.0    0.0   0.0  ----   0.0   -----|SC  60 OC 390 
Tue 05:30    S 22/ 32  10.7 10.5  1022.1    0.0   0.0   0.0   0.0   -----|SC  60 OC 390 
Tue 06:00  SSW 22/ 32  10.6 10.4  1022.1    0.0   0.0   0.0   0.0   -----|SC  60 OC 450 
Tue 06:07  SSW 24/ 32  10.7 10.1  1022.2    0.0   0.0  ----   0.0   -----|SC  60 OC 450 
Tue 06:30  SSW 20/ 28  10.5  8.9  1022.3    0.0   0.0   0.0   0.0   -----|BR 450 
Tue 07:00  SSW 19/ 26  10.6  9.2  1022.6    0.0   0.0   0.0   0.0   -----|OC 510 
Tue 07:30    S 20/ 30  10.7 10.2  1023.0    0.0   0.0   0.0   0.0   -----|OC 570 
Tue 08:00    S 22/ 32  11.1 10.5  1023.2    0.0   0.0   0.0   0.0   -----|SC  90 OC 570 
Tue 08:30    S 22/ 37  11.9 10.6  1023.5    0.0   0.0   0.0   0.0   -----|SC  90 OC 570 
Tue 09:00    S 24/ 37  12.7 10.2  1023.8    0.0   0.0   0.0   0.0   -----|SC 180 OC 570 
Tue 09:26    S 24/ 35  13.9  9.5  1023.8    0.0   0.0  ----   0.0   -----|BR 420 OC 570 
Tue 09:30    S 28/ 39  13.6  8.7  1023.7    0.0   0.0   0.0   0.0   -----|BR 420 OC 570